Houghton, MI (49931)

1:27 AM EDT on September 18, 2014 (GMT -0400)
Hancock: Sylvan Estates | Change Station
CLOSE
Current Station
Personal Weather Station
Location: Hancock, MI
Elevation: 917 ft
Nearby Weather Stations
Active Advisory: Frost Advisory

Elev 917 ft 47.14 °N, 88.60 °W | Updated 7 minutes ago

Clear
Clear
35.9 °F
Feels Like 36 °F
N
1.0
Wind Variable Wind from NE
Gusts 3.0 mph

Today
High -- | Low -- °F
--% Chance of Precip.
Yesterday
High -- | Low -- °F
Precip. -- in
7:35 AM 8:00 PM
Waning Crescent, 30% visible
Pressure 30.18 in
Visibility 10.0 miles
Clouds Clear
Windchill 36 °F
Dew Point 34 °F
Humidity 94%
Rainfall 0.00 in
Snow Depth Not available.
UV 0 out of 12
Pollen 1.90 out of 12
Air Quality Not available.
Flu Activity Not available.
METAR KCMX 180453Z AUTO 04003KT 10SM CLR 01/M01 A3015 RMK AO2 SLP219 T00061011 401170000

More Conditions Fewer Conditions

Pressure 30.18 in
Visibility 10.0 miles
Clouds Clear
Windchill 36 °F
Dew Point 34 °F
Humidity 94%
Rainfall 0.00 in
Snow Depth Not available.
UV 0 out of 12
Pollen 1.90 out of 12
Air Quality Not available.
Flu Activity Not available.
METAR KCMX 180453Z AUTO 04003KT 10SM CLR 01/M01 A3015 RMK AO2 SLP219 T00061011 401170000

More Conditions Fewer Conditions

10-Day Weather Forecast

Almanac

Astronomy

Sep. 18, 2014 Rise Set
Actual Time 7:35 AM EDT 8:00 PM EDT
Civil Twilight 7:05 AM EDT 8:30 PM EDT
Nautical Twilight 6:29 AM EDT 9:06 PM EDT
Astronomical Twilight 5:51 AM EDT 9:43 PM EDT
Moon 2:12 AM EDT 5:05 PM EDT
Length of Visible Light 13h 25m
Length of Day
12h 24m
Tomorrow will be 3m 20s shorter.
Waning Crescent, 30% of the Moon is Illuminated
Today
Waning Crescent
Sep 24
New
Oct 1
First Quarter
Oct 8
Full
Oct 15
Last Quarter

Today's Extremes

State Highs State Lows

Community

WunderPhotos

Upload Photos

1,754,292 photos uploaded!

Nearby

Snow Depth

Station Depth Elevation
No new snow has been reported.

Earthquake Activity

City Distance Mag. Time & Date
No recent earthquake activity has been reported nearby.
Minimum magnitude displayed is 2.5.

Coastal Water Temperatures

Place Temperature
No Stations Reporting

Nearby Weather Stations